| time (UTC) | temp C | wind direction | speed KPH | gust KPH | rain 1hr cm | rain 24hr cm | rain mn cm | humidity % | barometer mb |
| 20260506182447 | 17 | 68 | 8.0 | 19.3 | 0.00 | 0.36 | 0.36 | 75 | 1007.8 |
| 20260506181925 | 17 | 38 | 8.0 | 19.3 | 0.00 | 0.36 | 0.36 | 75 | 1007.9 |
| 20260506181423 | 17 | 87 | 9.7 | 22.5 | 0.00 | 0.36 | 0.36 | 75 | 1008.0 |
| 20260506180922 | 17 | 86 | 9.7 | 22.5 | 0.00 | 0.36 | 0.36 | 75 | 1007.9 |
| 20260506180629 | 17 | 27 | 6.4 | 19.3 | 0.00 | 0.36 | 0.36 | 77 | 1007.9 |
| 20260506180503 | 17 | 68 | 8.0 | 20.9 | 0.00 | 0.36 | 0.36 | 76 | 1007.9 |
| 20260506175338 | 17 | 82 | 4.8 | 19.3 | 0.00 | 0.36 | 0.36 | 78 | 1008.2 |
| 20260506174837 | 17 | 39 | 4.8 | 14.5 | 0.03 | 0.36 | 0.36 | 78 | 1008.2 |
| 20260506174336 | 17 | 51 | 6.4 | 20.9 | 0.03 | 0.36 | 0.36 | 77 | 1008.2 |
| 20260506173835 | 17 | 77 | 8.0 | 20.9 | 0.05 | 0.36 | 0.36 | 77 | 1008.4 |
| 20260506173329 | 17 | 60 | 8.0 | 20.9 | 0.05 | 0.36 | 0.36 | 77 | 1008.3 |
| 20260506172803 | 17 | 93 | 8.0 | 20.9 | 0.05 | 0.36 | 0.36 | 77 | 1008.3 |
| 20260506172528 | 17 | 55 | 8.0 | 25.7 | 0.08 | 0.36 | 0.36 | 76 | 1008.3 |
| 20260506171742 | 17 | 41 | 6.4 | 25.7 | 0.08 | 0.36 | 0.36 | 76 | 1008.3 |
| 20260506171241 | 17 | 56 | 4.8 | 17.7 | 0.08 | 0.36 | 0.36 | 78 | 1008.2 |
| 20260506170740 | 17 | 88 | 4.8 | 17.7 | 0.10 | 0.36 | 0.36 | 79 | 1008.0 |
| 20260506170239 | 17 | 79 | 4.8 | 14.5 | 0.13 | 0.36 | 0.36 | 79 | 1007.9 |
| 20260506165726 | 17 | 34 | 3.2 | 11.3 | 0.15 | 0.36 | 0.36 | 79 | 1008.0 |
| 20260506165448 | 17 | 47 | 3.2 | 9.7 | 0.15 | 0.36 | 0.36 | 80 | 1008.2 |
| 20260506164714 | 16 | 85 | 3.2 | 9.7 | 0.15 | 0.33 | 0.33 | 79 | 1008.2 |
| 20260506164210 | 17 | 326 | 1.6 | 4.8 | 0.18 | 0.33 | 0.33 | 80 | 1008.3 |
| 20260506163650 | 17 | 75 | 1.6 | 6.4 | 0.18 | 0.30 | 0.30 | 79 | 1008.5 |
| 20260506163151 | 17 | 62 | 1.6 | 6.4 | 0.20 | 0.30 | 0.30 | 79 | 1008.8 |
| 20260506162650 | 17 | 84 | 1.6 | 11.3 | 0.18 | 0.28 | 0.30 | 79 | 1009.0 |
| 20260506162422 | 16 | 67 | 3.2 | 11.3 | 0.18 | 0.28 | 0.28 | 79 | 1009.3 |
| 20260506161619 | 16 | 89 | 4.8 | 12.9 | 0.18 | 0.28 | 0.28 | 78 | 1009.4 |
| 20260506161116 | 16 | 50 | 4.8 | 14.5 | 0.18 | 0.28 | 0.28 | 78 | 1009.5 |
| 20260506160608 | 16 | 91 | 3.2 | 14.5 | 0.18 | 0.25 | 0.25 | 78 | 1009.6 |
| 20260506160047 | 17 | 57 | 3.2 | 9.7 | 0.18 | 0.23 | 0.23 | 78 | 1009.5 |
| 20260506155548 | 17 | 69 | 3.2 | 14.5 | 0.15 | 0.20 | 0.20 | 78 | 1009.6 |
| 20260506155038 | 17 | 60 | 6.4 | 12.9 | 0.13 | 0.18 | 0.18 | 78 | 1009.8 |
| 20260506154534 | 17 | 77 | 6.4 | 14.5 | 0.10 | 0.15 | 0.15 | 78 | 1010.0 |
| 20260506154026 | 17 | 27 | 4.8 | 14.5 | 0.08 | 0.13 | 0.13 | 78 | 1009.9 |
| 20260506153526 | 17 | 75 | 4.8 | 9.7 | 0.08 | 0.13 | 0.13 | 77 | 1009.8 |
| 20260506153028 | 17 | 32 | 3.2 | 12.9 | 0.05 | 0.10 | 0.10 | 77 | 1009.7 |
| 20260506152743 | 17 | 94 | 4.8 | 12.9 | 0.05 | 0.10 | 0.10 | 77 | 1009.5 |
| 20260506152012 | 18 | 60 | 4.8 | 14.5 | 0.05 | 0.10 | 0.10 | 76 | 1009.6 |
| 20260506151452 | 18 | 53 | 4.8 | 14.5 | 0.05 | 0.10 | 0.10 | 75 | 1009.5 |
| 20260506150940 | 18 | 74 | 6.4 | 16.1 | 0.03 | 0.08 | 0.08 | 75 | 1009.5 |
| 20260506150438 | 18 | 82 | 6.4 | 16.1 | 0.03 | 0.08 | 0.08 | 74 | 1009.7 |
| 20260506145912 | 18 | 91 | 6.4 | 20.9 | 0.00 | 0.05 | 0.05 | 73 | 1009.6 |
| 20260506145618 | 18 | 97 | 8.0 | 20.9 | 0.00 | 0.05 | 0.05 | 71 | 1009.6 |
| 20260506144821 | 19 | 65 | 9.7 | 24.1 | 0.00 | 0.05 | 0.05 | 70 | 1009.8 |
| 20260506144551 | 19 | 47 | 9.7 | 24.1 | 0.00 | 0.05 | 0.05 | 68 | 1009.9 |
| 20260506143757 | 19 | 56 | 11.3 | 27.4 | 0.00 | 0.05 | 0.05 | 68 | 1009.9 |
| 20260506143255 | 20 | 66 | 11.3 | 27.4 | 0.00 | 0.05 | 0.05 | 67 | 1009.9 |
| 20260506142754 | 20 | 68 | 11.3 | 30.6 | 0.00 | 0.05 | 0.05 | 66 | 1009.7 |
| 20260506142230 | 20 | 354 | 11.3 | 30.6 | 0.00 | 0.05 | 0.05 | 66 | 1009.7 |
| 20260506141708 | 20 | 73 | 11.3 | 20.9 | 0.00 | 0.05 | 0.05 | 66 | 1009.6 |
| 20260506141201 | 20 | 68 | 9.7 | 20.9 | 0.00 | 0.05 | 0.05 | 66 | 1009.6 |
| 20260506140932 | 20 | 41 | 9.7 | 25.7 | 0.00 | 0.05 | 0.05 | 66 | 1009.4 |
| 20260506140154 | 20 | 68 | 11.3 | 25.7 | 0.00 | 0.05 | 0.05 | 67 | 1009.3 |
| 20260506135649 | 20 | 25 | 9.7 | 25.7 | 0.00 | 0.05 | 0.05 | 67 | 1009.4 |
| 20260506135122 | 19 | 42 | 8.0 | 25.7 | 0.00 | 0.05 | 0.05 | 68 | 1009.5 |
| 20260506134614 | 19 | 86 | 9.7 | 20.9 | 0.00 | 0.05 | 0.05 | 68 | 1009.5 |
| 20260506134105 | 19 | 88 | 8.0 | 20.9 | 0.00 | 0.05 | 0.05 | 67 | 1009.5 |
| 20260506133528 | 19 | 57 | 6.4 | 19.3 | 0.00 | 0.05 | 0.05 | 68 | 1009.5 |
| 20260506133003 | 19 | 43 | 8.0 | 24.1 | 0.00 | 0.05 | 0.05 | 68 | 1009.5 |
| 20260506132504 | 19 | 36 | 8.0 | 24.1 | 0.00 | 0.05 | 0.05 | 67 | 1009.6 |
| 20260506132003 | 19 | 53 | 6.4 | 14.5 | 0.00 | 0.05 | 0.05 | 68 | 1009.9 |
| 20260506131438 | 19 | 47 | 6.4 | 16.1 | 0.00 | 0.05 | 0.05 | 68 | 1009.8 |
| 20260506130939 | 19 | 67 | 8.0 | 20.9 | 0.00 | 0.05 | 0.05 | 68 | 1009.8 |
| 20260506130430 | 19 | 31 | 8.0 | 20.9 | 0.00 | 0.05 | 0.05 | 69 | 1009.7 |
| 20260506125914 | 19 | 68 | 8.0 | 25.7 | 0.00 | 0.05 | 0.05 | 68 | 1009.7 |
| 20260506125414 | 18 | 18 | 11.3 | 25.7 | 0.00 | 0.05 | 0.05 | 69 | 1009.6 |
| 20260506124913 | 18 | 38 | 9.7 | 24.1 | 0.00 | 0.05 | 0.05 | 69 | 1009.6 |
| 20260506124345 | 18 | 91 | 8.0 | 22.5 | 0.00 | 0.05 | 0.05 | 69 | 1009.5 |
| 20260506123847 | 18 | 60 | 6.4 | 22.5 | 0.00 | 0.05 | 0.05 | 69 | 1009.4 |
| 20260506123618 | 18 | 68 | 6.4 | 16.1 | 0.00 | 0.05 | 0.05 | 69 | 1009.4 |
| 20260506122841 | 18 | 44 | 4.8 | 14.5 | 0.00 | 0.05 | 0.05 | 69 | 1009.4 |
| 20260506122340 | 18 | 50 | 4.8 | 14.5 | 0.00 | 0.05 | 0.05 | 70 | 1009.3 |
| 20260506121824 | 18 | 37 | 6.4 | 16.1 | 0.05 | 0.05 | 0.05 | 70 | 1009.4 |
| 20260506121329 | 18 | 331 | 4.8 | 14.5 | 0.05 | 0.05 | 0.05 | 70 | 1009.5 |
| 20260506121325 | 18 | 55 | 4.8 | 16.1 | 0.05 | 0.05 | 0.05 | 70 | 1009.5 |
| 20260506120315 | 18 | 51 | 4.8 | 19.3 | 0.05 | 0.05 | 0.05 | 71 | 1009.6 |
| 20260506115748 | 18 | 87 | 4.8 | 12.9 | 0.05 | 0.05 | 0.05 | 71 | 1009.5 |
| 20260506115227 | 18 | 21 | 4.8 | 12.9 | 0.05 | 0.05 | 0.05 | 71 | 1009.6 |
| 20260506114708 | 18 | 65 | 4.8 | 16.1 | 0.05 | 0.05 | 0.05 | 71 | 1009.5 |
| 20260506114204 | 18 | 67 | 6.4 | 11.3 | 0.05 | 0.05 | 0.05 | 71 | 1009.6 |
| 20260506113643 | 18 | 61 | 6.4 | 17.7 | 0.05 | 0.05 | 0.05 | 71 | 1009.7 |
| 20260506113343 | 18 | 38 | 4.8 | 16.1 | 0.05 | 0.05 | 0.05 | 71 | 1009.9 |
| 20260506112548 | 18 | 24 | 3.2 | 19.3 | 0.05 | 0.05 | 0.05 | 71 | 1009.8 |
| 20260506112020 | 18 | 95 | 4.8 | 19.3 | 0.03 | 0.03 | 0.03 | 71 | 1009.6 |
| 20260506111518 | 18 | 49 | 4.8 | 9.7 | 0.00 | 0.00 | 0.00 | 72 | 1009.5 |
| 20260506110953 | 18 | 62 | 6.4 | 16.1 | 0.00 | 0.00 | 0.00 | 72 | 1009.5 |
| 20260506110657 | 18 | 45 | 6.4 | 16.1 | 0.00 | 0.00 | 0.00 | 72 | 1009.5 |
| 20260506105926 | 18 | 308 | 4.8 | 12.9 | 0.00 | 0.00 | 0.00 | 73 | 1009.6 |
| 20260506105427 | 17 | 56 | 4.8 | 12.9 | 0.00 | 0.00 | 0.00 | 73 | 1009.4 |
| 20260506104905 | 17 | 30 | 4.8 | 14.5 | 0.00 | 0.00 | 0.00 | 73 | 1009.3 |
| 20260506104634 | 17 | 63 | 4.8 | 14.5 | 0.00 | 0.00 | 0.00 | 73 | 1009.4 |
| 20260506104135 | 17 | 74 | 4.8 | 12.9 | 0.00 | 0.00 | 0.00 | 73 | 1009.3 |
| 20260506103332 | 17 | 76 | 4.8 | 12.9 | 0.00 | 0.00 | 0.00 | 73 | 1009.4 |
| 20260506102833 | 17 | 34 | 3.2 | 9.7 | 0.00 | 0.00 | 0.00 | 74 | 1009.3 |
| 20260506102336 | 17 | 60 | 4.8 | 17.7 | 0.00 | 0.00 | 0.00 | 73 | 1009.5 |
| 20260506101805 | 17 | 25 | 6.4 | 17.7 | 0.00 | 0.00 | 0.00 | 73 | 1009.4 |
| 20260506101248 | 17 | 42 | 4.8 | 14.5 | 0.00 | 0.00 | 0.00 | 73 | 1009.5 |
| 20260506100745 | 17 | 58 | 4.8 | 12.9 | 0.00 | 0.00 | 0.00 | 73 | 1009.4 |
| 20260506100518 | 17 | 46 | 4.8 | 12.9 | 0.00 | 0.00 | 0.00 | 73 | 1009.4 |
| 20260506095734 | 17 | 34 | 4.8 | 12.9 | 0.00 | 0.00 | 0.00 | 73 | 1009.4 |
| 20260506095506 | 17 | 49 | 4.8 | 11.3 | 0.00 | 0.00 | 0.00 | 73 | 1009.3 |
| 20260506094724 | 17 | 41 | 4.8 | 14.5 | 0.00 | 0.00 | 0.00 | 73 | 1009.2 |
| 20260506094221 | 18 | 41 | 6.4 | 14.5 | 0.00 | 0.00 | 0.00 | 72 | 1009.3 |
| 20260506093953 | 18 | 37 | 6.4 | 12.9 | 0.00 | 0.00 | 0.00 | 73 | 1009.2 |
| 20260506093436 | 18 | 76 | 4.8 | 12.9 | 0.00 | 0.00 | 0.00 | 73 | 1009.2 |
| 20260506092640 | 18 | 46 | 4.8 | 12.9 | 0.00 | 0.00 | 0.00 | 73 | 1009.2 |
| 20260506092115 | 18 | 58 | 4.8 | 12.9 | 0.00 | 0.00 | 0.00 | 73 | 1009.2 |
| 20260506091612 | 18 | 49 | 4.8 | 17.7 | 0.00 | 0.00 | 0.00 | 73 | 1009.3 |
| 20260506091110 | 18 | 23 | 4.8 | 17.7 | 0.00 | 0.00 | 0.00 | 73 | 1009.3 |
| 20260506090833 | 18 | 356 | 4.8 | 16.1 | 0.00 | 0.00 | 0.00 | 73 | 1009.4 |
| 20260506090101 | 18 | 65 | 6.4 | 16.1 | 0.00 | 0.00 | 0.00 | 73 | 1009.4 |
| 20260506085541 | 18 | 32 | 6.4 | 16.1 | 0.00 | 0.00 | 0.00 | 73 | 1009.4 |
| 20260506085245 | 18 | 80 | 6.4 | 14.5 | 0.00 | 0.00 | 0.00 | 73 | 1009.4 |
| 20260506084445 | 18 | 71 | 4.8 | 14.5 | 0.00 | 0.00 | 0.00 | 73 | 1009.4 |
| 20260506083939 | 18 | 22 | 4.8 | 17.7 | 0.00 | 0.00 | 0.00 | 73 | 1009.5 |
| 20260506083416 | 18 | 72 | 4.8 | 17.7 | 0.00 | 0.00 | 0.00 | 73 | 1009.6 |
| 20260506082845 | 18 | 62 | 4.8 | 14.5 | 0.00 | 0.00 | 0.00 | 73 | 1009.5 |
| 20260506082332 | 18 | 84 | 4.8 | 11.3 | 0.00 | 0.00 | 0.00 | 73 | 1009.5 |
| 20260506081830 | 18 | 64 | 4.8 | 11.3 | 0.00 | 0.00 | 0.00 | 73 | 1009.3 |
| 20260506081255 | 18 | 66 | 4.8 | 16.1 | 0.00 | 0.00 | 0.00 | 73 | 1009.4 |
| 20260506080755 | 18 | 78 | 4.8 | 16.1 | 0.00 | 0.00 | 0.00 | 73 | 1009.6 |
| 20260506080228 | 18 | 48 | 3.2 | 9.7 | 0.00 | 0.00 | 0.00 | 73 | 1009.6 |
| 20260506073139 | 18 | 70 | 4.8 | 9.7 | 0.00 | 0.00 | 0.00 | 71 | 1009.6 |
| 20260506072906 | 18 | 57 | 4.8 | 17.7 | 0.00 | 0.00 | 0.00 | 71 | 1009.6 |
| 20260506072747 | 18 | 36 | 4.8 | 17.7 | 0.00 | 0.00 | 0.00 | 71 | 1009.6 |
| 20260506071624 | 18 | 61 | 3.2 | 12.9 | 0.00 | 0.00 | 0.00 | 70 | 1009.6 |
| 20260506071126 | 18 | 44 | 4.8 | 12.9 | 0.00 | 0.00 | 0.00 | 70 | 1009.6 |
| 20260506070618 | 18 | 77 | 3.2 | 11.3 | 0.00 | 0.00 | 0.00 | 70 | 1009.6 |
| 20260506070116 | 18 | 44 | 3.2 | 6.4 | 0.00 | 0.00 | 0.00 | 70 | 1009.7 |
| 20260506062513 | 19 | 60 | 4.8 | 14.5 | 0.00 | 0.00 | 0.00 | 68 | 1009.9 |
| 20260506062011 | 19 | 64 | 4.8 | 14.5 | 0.00 | 0.00 | 0.00 | 67 | 1009.9 |
| 20260506061509 | 19 | 90 | 4.8 | 14.5 | 0.00 | 0.00 | 0.00 | 67 | 1010.0 |
| 20260506061230 | 19 | 55 | 4.8 | 14.5 | 0.00 | 0.00 | 0.00 | 67 | 1009.9 |
| 20260506060459 | 19 | 60 | 4.8 | 12.9 | 0.00 | 0.00 | 0.00 | 67 | 1009.9 |
| 20260506051338 | 19 | 43 | 4.8 | 11.3 | 0.00 | 0.00 | 0.00 | 65 | 1010.4 |
| 20260506050835 | 19 | 41 | 4.8 | 11.3 | 0.00 | 0.00 | 0.00 | 65 | 1010.5 |
| 20260506050322 | 19 | 30 | 4.8 | 8.0 | 0.00 | 0.00 | 0.00 | 65 | 1010.6 |
| 20260506044812 | 20 | 36 | 4.8 | 9.7 | 0.00 | 0.00 | 0.00 | 64 | 1010.6 |
| 20260506044314 | 20 | 66 | 4.8 | 16.1 | 0.00 | 0.00 | 0.00 | 64 | 1010.6 |
| 20260506043758 | 20 | 65 | 4.8 | 16.1 | 0.00 | 0.00 | 0.00 | 63 | 1010.6 |
| 20260506043524 | 20 | 38 | 4.8 | 12.9 | 0.00 | 0.00 | 0.00 | 63 | 1010.6 |
| 20260506042749 | 20 | 71 | 3.2 | 8.0 | 0.00 | 0.00 | 0.00 | 63 | 1010.6 |
| 20260506042249 | 20 | 79 | 4.8 | 12.9 | 0.00 | 0.00 | 0.00 | 63 | 1010.6 |
| 20260506041725 | 20 | 65 | 4.8 | 12.9 | 0.00 | 0.00 | 0.00 | 62 | 1010.6 |
| 20260506041432 | 20 | 59 | 4.8 | 16.1 | 0.00 | 0.00 | 0.00 | 62 | 1010.6 |
| 20260506041315 | 20 | 26 | 4.8 | 16.1 | 0.00 | 0.00 | 0.00 | 62 | 1010.6 |
| 20260506040154 | 20 | 51 | 4.8 | 17.7 | 0.00 | 0.00 | 0.00 | 62 | 1010.6 |
| 20260506035654 | 20 | 83 | 4.8 | 17.7 | 0.00 | 0.00 | 0.00 | 61 | 1010.6 |
| 20260506035144 | 20 | 98 | 4.8 | 17.7 | 0.00 | 0.00 | 0.00 | 61 | 1010.5 |
| 20260506034645 | 20 | 72 | 4.8 | 17.7 | 0.00 | 0.00 | 0.00 | 61 | 1010.5 |
| 20260506034116 | 20 | 343 | 4.8 | 17.7 | 0.00 | 0.00 | 0.00 | 61 | 1010.5 |
| 20260506034105 | 20 | 51 | 4.8 | 17.7 | 0.00 | 0.00 | 0.00 | 61 | 1010.5 |
| 20260506033332 | 20 | 64 | 3.2 | 14.5 | 0.00 | 0.00 | 0.00 | 60 | 1010.5 |
| 20260506032601 | 20 | 58 | 4.8 | 12.9 | 0.00 | 0.00 | 0.00 | 60 | 1010.5 |
| 20260506032100 | 20 | 64 | 3.2 | 12.9 | 0.00 | 0.00 | 0.00 | 60 | 1010.4 |
| 20260506031532 | 20 | 350 | 3.2 | 12.9 | 0.00 | 0.00 | 0.00 | 60 | 1010.3 |
| 20260506031006 | 20 | 58 | 3.2 | 9.7 | 0.00 | 0.00 | 0.00 | 60 | 1010.4 |
| 20260506030502 | 20 | 57 | 3.2 | 12.9 | 0.00 | 0.00 | 0.00 | 60 | 1010.5 |
| 20260506025938 | 20 | 84 | 3.2 | 12.9 | 0.00 | 0.00 | 0.00 | 60 | 1010.4 |
| 20260506025334 | 20 | 72 | 3.2 | 8.0 | 0.00 | 0.00 | 0.00 | 60 | 1010.5 |
| 20260506025100 | 20 | 82 | 3.2 | 9.7 | 0.00 | 0.00 | 0.00 | 60 | 1010.5 |
| 20260506024330 | 20 | 67 | 3.2 | 8.0 | 0.00 | 0.00 | 0.00 | 60 | 1010.4 |
| 20260506023814 | 20 | 54 | 3.2 | 9.7 | 0.00 | 0.00 | 0.00 | 60 | 1010.5 |
| 20260506023313 | 20 | 48 | 3.2 | 9.7 | 0.00 | 0.00 | 0.00 | 59 | 1010.5 |
| 20260506023045 | 20 | 61 | 3.2 | 16.1 | 0.00 | 0.00 | 0.00 | 59 | 1010.4 |
| 20260506022251 | 21 | 64 | 4.8 | 16.1 | 0.00 | 0.00 | 0.00 | 59 | 1010.5 |
| 20260506021726 | 21 | 64 | 4.8 | 17.7 | 0.00 | 0.00 | 0.00 | 58 | 1010.5 |
| 20260506021211 | 21 | 25 | 4.8 | 17.7 | 0.00 | 0.00 | 0.00 | 58 | 1010.5 |
| 20260506020653 | 21 | 30 | 6.4 | 19.3 | 0.00 | 0.00 | 0.00 | 57 | 1010.5 |
| 20260506020647 | 21 | 46 | 4.8 | 19.3 | 0.00 | 0.00 | 0.00 | 58 | 1010.5 |
| 20260506015647 | 21 | 28 | 4.8 | 16.1 | 0.00 | 0.00 | 0.00 | 57 | 1010.4 |
| 20260506015122 | 21 | 340 | 4.8 | 11.3 | 0.00 | 0.00 | 0.00 | 56 | 1010.4 |
| 20260506014556 | 21 | 19 | 4.8 | 11.3 | 0.00 | 0.00 | 0.00 | 55 | 1010.2 |
| 20260506014320 | 22 | 328 | 3.2 | 9.7 | 0.00 | 0.00 | 0.00 | 54 | 1010.3 |
| 20260506013538 | 22 | 37 | 3.2 | 6.4 | 0.00 | 0.00 | 0.00 | 52 | 1010.2 |
| 20260506013242 | 22 | 302 | 4.8 | 9.7 | 0.00 | 0.00 | 0.00 | 51 | 1010.0 |
| 20260506012511 | 22 | 62 | 4.8 | 9.7 | 0.00 | 0.00 | 0.00 | 50 | 1010.1 |
| 20260506012011 | 22 | 81 | 4.8 | 16.1 | 0.00 | 0.00 | 0.00 | 49 | 1010.2 |
| 20260506011451 | 22 | 328 | 4.8 | 16.1 | 0.00 | 0.00 | 0.00 | 49 | 1009.9 |
| 20260506011153 | 22 | 29 | 3.2 | 9.7 | 0.00 | 0.00 | 0.00 | 48 | 1009.9 |
| 20260506010620 | 22 | 34 | 3.2 | 4.8 | 0.00 | 0.00 | 0.00 | 47 | 1009.8 |
| 20260506005824 | 23 | 34 | 3.2 | 4.8 | 0.00 | 0.00 | 0.00 | 46 | 1009.7 |
| 20260506005320 | 23 | 65 | 3.2 | 9.7 | 0.00 | 0.00 | 0.00 | 46 | 1009.6 |
| 20260506004809 | 23 | 75 | 3.2 | 8.0 | 0.00 | 0.00 | 0.00 | 46 | 1009.6 |
| 20260506004246 | 23 | 39 | 3.2 | 9.7 | 0.00 | 0.00 | 0.00 | 46 | 1009.4 |
| 20260506003743 | 23 | 60 | 3.2 | 9.7 | 0.00 | 0.00 | 0.00 | 45 | 1009.4 |
| 20260506003244 | 23 | 42 | 4.8 | 12.9 | 0.00 | 0.00 | 0.00 | 45 | 1009.4 |
| 20260506002733 | 23 | 51 | 4.8 | 12.9 | 0.00 | 0.00 | 0.00 | 45 | 1009.2 |
| 20260506002231 | 23 | 61 | 4.8 | 16.1 | 0.00 | 0.00 | 0.00 | 45 | 1009.2 |
| 20260506002002 | 23 | 51 | 4.8 | 16.1 | 0.00 | 0.00 | 0.00 | 45 | 1009.1 |
| 20260506001200 | 23 | 41 | 4.8 | 12.9 | 0.00 | 0.00 | 0.00 | 45 | 1009.2 |
| 20260506000636 | 24 | 88 | 4.8 | 12.9 | 0.00 | 0.00 | 0.00 | 45 | 1009.1 |
| 20260506000124 | 24 | 36 | 6.4 | 16.1 | 0.00 | 0.00 | 0.00 | 45 | 1009.1 |
| 20260505235555 | 24 | 66 | 4.8 | 16.1 | 0.00 | 0.00 | 0.00 | 44 | 1009.0 |
| 20260505235042 | 24 | 77 | 6.4 | 20.9 | 0.00 | 0.00 | 0.00 | 44 | 1009.0 |
| 20260505234747 | 25 | 39 | 8.0 | 20.9 | 0.00 | 0.00 | 0.00 | 43 | 1009.0 |
| 20260505234243 | 25 | 36 | 6.4 | 14.5 | 0.00 | 0.00 | 0.00 | 43 | 1009.0 |
| 20260505233457 | 25 | 48 | 4.8 | 14.5 | 0.00 | 0.00 | 0.00 | 43 | 1009.0 |
| 20260505232959 | 25 | 43 | 6.4 | 14.5 | 0.00 | 0.00 | 0.00 | 42 | 1008.9 |
| 20260505232432 | 25 | 42 | 8.0 | 19.3 | 0.00 | 0.00 | 0.00 | 41 | 1008.8 |
| 20260505231919 | 25 | 83 | 8.0 | 19.3 | 0.00 | 0.00 | 0.00 | 40 | 1008.8 |
| 20260505231419 | 25 | 29 | 6.4 | 19.3 | 0.00 | 0.00 | 0.00 | 40 | 1008.8 |
| 20260505230852 | 25 | 77 | 8.0 | 16.1 | 0.00 | 0.00 | 0.00 | 39 | 1008.6 |
| 20260505230350 | 25 | 69 | 8.0 | 22.5 | 0.00 | 0.00 | 0.00 | 39 | 1008.6 |
| 20260505230052 | 26 | 19 | 9.7 | 22.5 | 0.00 | 0.00 | 0.00 | 38 | 1008.5 |
| 20260505225306 | 26 | 51 | 9.7 | 25.7 | 0.00 | 0.00 | 0.00 | 37 | 1008.6 |
| 20260505224802 | 26 | 35 | 11.3 | 33.8 | 0.00 | 0.00 | 0.00 | 37 | 1008.6 |
| 20260505224302 | 26 | 86 | 9.7 | 33.8 | 0.00 | 0.00 | 0.00 | 37 | 1008.5 |
| 20260505223801 | 26 | 48 | 9.7 | 25.7 | 0.00 | 0.00 | 0.00 | 37 | 1008.5 |
| 20260505223255 | 26 | 33 | 11.3 | 25.7 | 0.00 | 0.00 | 0.00 | 35 | 1008.4 |
| 20260505222752 | 26 | 27 | 11.3 | 32.2 | 0.00 | 0.00 | 0.00 | 35 | 1008.5 |
| 20260505222252 | 26 | 93 | 12.9 | 32.2 | 0.00 | 0.00 | 0.00 | 35 | 1008.4 |
| 20260505221752 | 26 | 77 | 12.9 | 35.4 | 0.00 | 0.00 | 0.00 | 35 | 1008.5 |
| 20260505221248 | 26 | 20 | 11.3 | 35.4 | 0.00 | 0.00 | 0.00 | 35 | 1008.5 |
| 20260505220716 | 26 | 67 | 9.7 | 29.0 | 0.00 | 0.00 | 0.00 | 35 | 1008.5 |
| 20260505220215 | 26 | 78 | 12.9 | 22.5 | 0.00 | 0.00 | 0.00 | 34 | 1008.5 |
| 20260505215651 | 26 | 44 | 14.5 | 40.2 | 0.00 | 0.00 | 0.00 | 33 | 1008.3 |
| 20260505215150 | 26 | 34 | 14.5 | 40.2 | 0.00 | 0.00 | 0.00 | 33 | 1008.5 |
| 20260505214905 | 26 | 68 | 16.1 | 37.0 | 0.00 | 0.00 | 0.00 | 33 | 1008.5 |
| 20260505214114 | 26 | 356 | 16.1 | 35.4 | 0.00 | 0.00 | 0.00 | 33 | 1008.4 |
| 20260505213547 | 27 | 78 | 14.5 | 35.4 | 0.00 | 0.00 | 0.00 | 31 | 1008.2 |
| 20260505213035 | 27 | 89 | 16.1 | 32.2 | 0.00 | 0.00 | 0.00 | 33 | 1008.2 |
| 20260505212508 | 27 | 13 | 16.1 | 33.8 | 0.00 | 0.00 | 0.00 | 32 | 1008.2 |
| 20260505212005 | 27 | 36 | 16.1 | 40.2 | 0.00 | 0.00 | 0.00 | 31 | 1008.1 |
| 20260505211509 | 27 | 51 | 16.1 | 40.2 | 0.00 | 0.00 | 0.00 | 30 | 1008.2 |
| 20260505210951 | 27 | 46 | 16.1 | 40.2 | 0.00 | 0.00 | 0.00 | 29 | 1008.3 |
| 20260505210722 | 27 | 38 | 14.5 | 40.2 | 0.00 | 0.00 | 0.00 | 30 | 1008.2 |
| 20260505205952 | 27 | 80 | 14.5 | 32.2 | 0.00 | 0.00 | 0.00 | 31 | 1008.1 |
| 20260505205436 | 27 | 15 | 16.1 | 37.0 | 0.00 | 0.00 | 0.00 | 32 | 1008.2 |
| 20260505205147 | 27 | 55 | 16.1 | 37.0 | 0.00 | 0.00 | 0.00 | 33 | 1008.1 |
| 20260505204414 | 27 | 90 | 17.7 | 41.8 | 0.00 | 0.00 | 0.00 | 33 | 1008.1 |
| 20260505203915 | 27 | 66 | 16.1 | 41.8 | 0.00 | 0.00 | 0.00 | 30 | 1008.1 |
| 20260505203411 | 27 | 54 | 14.5 | 37.0 | 0.00 | 0.00 | 0.00 | 31 | 1008.0 |
| 20260505202912 | 27 | 54 | 14.5 | 30.6 | 0.00 | 0.00 | 0.00 | 34 | 1008.0 |
| 20260505202409 | 27 | 63 | 14.5 | 29.0 | 0.00 | 0.00 | 0.00 | 34 | 1008.0 |
| 20260505201902 | 27 | 20 | 14.5 | 29.0 | 0.00 | 0.00 | 0.00 | 32 | 1007.9 |
| 20260505201402 | 27 | 75 | 16.1 | 38.6 | 0.00 | 0.00 | 0.00 | 33 | 1008.0 |
| 20260505200835 | 27 | 23 | 17.7 | 38.6 | 0.00 | 0.00 | 0.00 | 33 | 1008.1 |
| 20260505200319 | 27 | 67 | 12.9 | 35.4 | 0.00 | 0.00 | 0.00 | 33 | 1008.1 |
| 20260505195814 | 27 | 53 | 9.7 | 20.9 | 0.00 | 0.00 | 0.00 | 33 | 1008.0 |
| 20260505195304 | 27 | 48 | 11.3 | 35.4 | 0.00 | 0.00 | 0.00 | 37 | 1008.1 |
| 20260505194748 | 27 | 41 | 16.1 | 35.4 | 0.00 | 0.00 | 0.00 | 34 | 1008.2 |
| 20260505194516 | 27 | 41 | 16.1 | 35.4 | 0.00 | 0.00 | 0.00 | 34 | 1008.3 |
| 20260505193952 | 27 | 45 | 14.5 | 30.6 | 0.00 | 0.00 | 0.00 | 35 | 1008.4 |
| 20260505193222 | 27 | 74 | 16.1 | 37.0 | 0.00 | 0.00 | 0.00 | 35 | 1008.3 |
| 20260505192723 | 27 | 44 | 17.7 | 37.0 | 0.00 | 0.00 | 0.00 | 35 | 1008.5 |
| 20260505192225 | 27 | 101 | 14.5 | 32.2 | 0.00 | 0.00 | 0.00 | 37 | 1008.5 |
| 20260505191657 | 27 | 25 | 16.1 | 38.6 | 0.00 | 0.00 | 0.00 | 36 | 1008.6 |
| 20260505191137 | 27 | 23 | 14.5 | 38.6 | 0.00 | 0.00 | 0.00 | 36 | 1008.6 |
| 20260505190637 | 27 | 83 | 14.5 | 29.0 | 0.00 | 0.00 | 0.00 | 38 | 1008.7 |
| 20260505190410 | 27 | 21 | 16.1 | 30.6 | 0.00 | 0.00 | 0.00 | 39 | 1008.8 |
| 20260505185638 | 27 | 60 | 16.1 | 40.2 | 0.00 | 0.00 | 0.00 | 38 | 1008.8 |
| 20260505185140 | 27 | 86 | 14.5 | 40.2 | 0.00 | 0.00 | 0.00 | 37 | 1008.9 |
| 20260505184616 | 27 | 82 | 12.9 | 27.4 | 0.00 | 0.00 | 0.00 | 38 | 1008.9 |
| 20260505184047 | 27 | 62 | 12.9 | 22.5 | 0.00 | 0.00 | 0.00 | 39 | 1009.0 |
| 20260505183532 | 27 | 72 | 12.9 | 32.2 | 0.00 | 0.00 | 0.00 | 40 | 1009.0 |
| 20260505183248 | 27 | 58 | 11.3 | 32.2 | 0.00 | 0.00 | 0.00 | 40 | 1009.2 |